sensor_id;sensor_type;location;lat;lon;timestamp;pressure;altitude;pressure_sealevel;temperature;humidity
52935;BME280;38802;50.198;19.796;2022-11-09T00:01:27;96308.58;;;5.23;82.76
52935;BME280;38802;50.198;19.796;2022-11-09T00:03:57;96307.67;;;5.21;82.82
52935;BME280;38802;50.198;19.796;2022-11-09T00:06:26;96309.66;;;5.19;82.86
52935;BME280;38802;50.198;19.796;2022-11-09T00:08:55;96306.98;;;5.18;82.85
52935;BME280;38802;50.198;19.796;2022-11-09T00:11:23;96307.25;;;5.16;82.83
52935;BME280;38802;50.198;19.796;2022-11-09T00:13:51;96305.11;;;5.15;82.83
52935;BME280;38802;50.198;19.796;2022-11-09T00:16:20;96305.63;;;5.12;82.93
52935;BME280;38802;50.198;19.796;2022-11-09T00:18:49;96309.17;;;5.10;82.90
52935;BME280;38802;50.198;19.796;2022-11-09T00:21:20;96308.95;;;5.09;82.92
52935;BME280;38802;50.198;19.796;2022-11-09T00:23:49;96310.08;;;5.07;82.95
52935;BME280;38802;50.198;19.796;2022-11-09T00:26:19;96311.71;;;5.05;82.97
52935;BME280;38802;50.198;19.796;2022-11-09T00:28:48;96312.12;;;5.04;83.14
52935;BME280;38802;50.198;19.796;2022-11-09T00:31:18;96307.05;;;5.02;83.10
52935;BME280;38802;50.198;19.796;2022-11-09T00:33:51;96309.67;;;5.02;83.35
52935;BME280;38802;50.198;19.796;2022-11-09T00:36:21;96310.25;;;5.01;83.19
52935;BME280;38802;50.198;19.796;2022-11-09T00:38:51;96308.11;;;4.99;83.29
52935;BME280;38802;50.198;19.796;2022-11-09T00:41:21;96307.52;;;4.98;83.26
52935;BME280;38802;50.198;19.796;2022-11-09T00:43:49;96307.98;;;4.95;83.27
52935;BME280;38802;50.198;19.796;2022-11-09T00:46:19;96310.42;;;4.95;83.36
52935;BME280;38802;50.198;19.796;2022-11-09T00:48:50;96313.07;;;4.94;83.31
52935;BME280;38802;50.198;19.796;2022-11-09T00:51:18;96315.89;;;4.93;83.48
52935;BME280;38802;50.198;19.796;2022-11-09T00:53:46;96311.52;;;4.91;83.47
52935;BME280;38802;50.198;19.796;2022-11-09T00:56:22;96308.05;;;4.89;83.56
52935;BME280;38802;50.198;19.796;2022-11-09T00:58:53;96306.59;;;4.87;83.61
52935;BME280;38802;50.198;19.796;2022-11-09T01:01:22;96309.28;;;4.85;83.53
52935;BME280;38802;50.198;19.796;2022-11-09T01:03:51;96309.15;;;4.85;83.70
52935;BME280;38802;50.198;19.796;2022-11-09T01:06:21;96306.65;;;4.83;83.73
52935;BME280;38802;50.198;19.796;2022-11-09T01:08:50;96302.71;;;4.83;83.77
52935;BME280;38802;50.198;19.796;2022-11-09T01:11:20;96298.73;;;4.83;83.80
52935;BME280;38802;50.198;19.796;2022-11-09T01:13:52;96297.73;;;4.83;83.80
52935;BME280;38802;50.198;19.796;2022-11-09T01:16:22;96295.95;;;4.84;83.91
52935;BME280;38802;50.198;19.796;2022-11-09T01:18:55;96290.31;;;4.83;83.94
52935;BME280;38802;50.198;19.796;2022-11-09T01:21:25;96288.60;;;4.83;84.01
52935;BME280;38802;50.198;19.796;2022-11-09T01:23:55;96288.96;;;4.83;84.11
52935;BME280;38802;50.198;19.796;2022-11-09T01:26:27;96283.88;;;4.81;84.10
52935;BME280;38802;50.198;19.796;2022-11-09T01:28:55;96286.16;;;4.81;84.01
52935;BME280;38802;50.198;19.796;2022-11-09T01:31:25;96288.80;;;4.80;84.07
52935;BME280;38802;50.198;19.796;2022-11-09T01:33:53;96286.77;;;4.79;84.02
52935;BME280;38802;50.198;19.796;2022-11-09T01:36:23;96284.43;;;4.78;84.06
52935;BME280;38802;50.198;19.796;2022-11-09T01:38:51;96285.30;;;4.77;84.23
52935;BME280;38802;50.198;19.796;2022-11-09T01:41:22;96281.56;;;4.77;84.13
52935;BME280;38802;50.198;19.796;2022-11-09T01:44:10;96283.41;;;4.74;84.25
52935;BME280;38802;50.198;19.796;2022-11-09T01:47:05;96281.65;;;4.71;84.07
52935;BME280;38802;50.198;19.796;2022-11-09T01:49:53;96280.03;;;4.70;84.20
52935;BME280;38802;50.198;19.796;2022-11-09T01:52:32;96281.52;;;4.68;84.19
52935;BME280;38802;50.198;19.796;2022-11-09T01:55:04;96279.95;;;4.65;84.13
52935;BME280;38802;50.198;19.796;2022-11-09T01:57:44;96275.63;;;4.63;84.27
52935;BME280;38802;50.198;19.796;2022-11-09T02:00:15;96274.78;;;4.60;84.22
52935;BME280;38802;50.198;19.796;2022-11-09T02:05:41;96271.29;;;4.58;84.45
52935;BME280;38802;50.198;19.796;2022-11-09T02:08:12;96270.34;;;4.56;84.38
52935;BME280;38802;50.198;19.796;2022-11-09T02:13:25;96268.58;;;4.54;84.52
52935;BME280;38802;50.198;19.796;2022-11-09T02:15:56;96269.82;;;4.53;84.52
52935;BME280;38802;50.198;19.796;2022-11-09T02:18:30;96264.58;;;4.52;84.53
52935;BME280;38802;50.198;19.796;2022-11-09T02:21:01;96271.02;;;4.50;84.57
52935;BME280;38802;50.198;19.796;2022-11-09T02:23:30;96265.45;;;4.49;84.58
52935;BME280;38802;50.198;19.796;2022-11-09T02:26:10;96262.14;;;4.47;84.67
52935;BME280;38802;50.198;19.796;2022-11-09T02:28:41;96267.06;;;4.45;84.65
52935;BME280;38802;50.198;19.796;2022-11-09T02:31:12;96269.01;;;4.44;84.67
52935;BME280;38802;50.198;19.796;2022-11-09T02:34:05;96267.70;;;4.43;84.80
52935;BME280;38802;50.198;19.796;2022-11-09T02:36:35;96264.67;;;4.41;84.83
52935;BME280;38802;50.198;19.796;2022-11-09T02:39:06;96267.75;;;4.41;84.89
52935;BME280;38802;50.198;19.796;2022-11-09T02:41:44;96266.52;;;4.42;84.95
52935;BME280;38802;50.198;19.796;2022-11-09T02:44:15;96265.38;;;4.41;84.94
52935;BME280;38802;50.198;19.796;2022-11-09T02:46:45;96261.61;;;4.41;84.96
52935;BME280;38802;50.198;19.796;2022-11-09T02:49:13;96254.88;;;4.41;84.98
52935;BME280;38802;50.198;19.796;2022-11-09T02:51:41;96254.11;;;4.39;85.02
52935;BME280;38802;50.198;19.796;2022-11-09T02:54:10;96255.75;;;4.38;85.04
52935;BME280;38802;50.198;19.796;2022-11-09T02:56:39;96254.80;;;4.36;84.99
52935;BME280;38802;50.198;19.796;2022-11-09T02:59:08;96250.65;;;4.34;84.94
52935;BME280;38802;50.198;19.796;2022-11-09T03:01:36;96248.09;;;4.30;84.90
52935;BME280;38802;50.198;19.796;2022-11-09T03:04:05;96246.85;;;4.27;84.95
52935;BME280;38802;50.198;19.796;2022-11-09T03:06:35;96247.67;;;4.26;85.06
52935;BME280;38802;50.198;19.796;2022-11-09T03:09:10;96249.62;;;4.25;85.27
52935;BME280;38802;50.198;19.796;2022-11-09T03:11:40;96251.70;;;4.24;85.15
52935;BME280;38802;50.198;19.796;2022-11-09T03:14:10;96247.56;;;4.22;85.15
52935;BME280;38802;50.198;19.796;2022-11-09T03:16:42;96247.94;;;4.18;85.06
52935;BME280;38802;50.198;19.796;2022-11-09T03:19:17;96246.85;;;4.16;85.20
52935;BME280;38802;50.198;19.796;2022-11-09T03:21:46;96247.28;;;4.14;85.14
52935;BME280;38802;50.198;19.796;2022-11-09T03:24:14;96249.73;;;4.14;85.33
52935;BME280;38802;50.198;19.796;2022-11-09T03:26:42;96251.05;;;4.15;85.56
52935;BME280;38802;50.198;19.796;2022-11-09T03:29:10;96254.51;;;4.14;85.56
52935;BME280;38802;50.198;19.796;2022-11-09T03:31:39;96260.86;;;4.15;85.46
52935;BME280;38802;50.198;19.796;2022-11-09T03:34:08;96264.65;;;4.14;85.49
52935;BME280;38802;50.198;19.796;2022-11-09T03:36:36;96270.86;;;4.14;85.35
52935;BME280;38802;50.198;19.796;2022-11-09T03:39:04;96272.19;;;4.15;85.75
52935;BME280;38802;50.198;19.796;2022-11-09T03:41:33;96271.33;;;4.15;85.53
52935;BME280;38802;50.198;19.796;2022-11-09T03:44:02;96272.84;;;4.16;85.58
52935;BME280;38802;50.198;19.796;2022-11-09T03:46:30;96273.67;;;4.16;85.56
52935;BME280;38802;50.198;19.796;2022-11-09T03:48:58;96275.90;;;4.16;85.80
52935;BME280;38802;50.198;19.796;2022-11-09T03:51:28;96273.62;;;4.17;85.81
52935;BME280;38802;50.198;19.796;2022-11-09T03:53:56;96272.44;;;4.17;85.84
52935;BME280;38802;50.198;19.796;2022-11-09T03:56:24;96271.48;;;4.15;85.82
52935;BME280;38802;50.198;19.796;2022-11-09T03:58:52;96268.41;;;4.15;85.61
52935;BME280;38802;50.198;19.796;2022-11-09T04:01:20;96268.67;;;4.13;85.70
52935;BME280;38802;50.198;19.796;2022-11-09T04:03:48;96263.77;;;4.12;85.71
52935;BME280;38802;50.198;19.796;2022-11-09T04:06:16;96264.42;;;4.12;85.90
52935;BME280;38802;50.198;19.796;2022-11-09T04:08:44;96263.93;;;4.12;86.01
52935;BME280;38802;50.198;19.796;2022-11-09T04:11:19;96263.58;;;4.12;86.02
52935;BME280;38802;50.198;19.796;2022-11-09T04:13:47;96260.29;;;4.13;85.79
52935;BME280;38802;50.198;19.796;2022-11-09T04:16:15;96254.11;;;4.12;85.81
52935;BME280;38802;50.198;19.796;2022-11-09T04:18:43;96257.20;;;4.12;86.12
52935;BME280;38802;50.198;19.796;2022-11-09T04:21:12;96247.40;;;4.12;86.11
52935;BME280;38802;50.198;19.796;2022-11-09T04:23:40;96244.84;;;4.12;85.96
52935;BME280;38802;50.198;19.796;2022-11-09T04:26:08;96245.38;;;4.12;85.99
52935;BME280;38802;50.198;19.796;2022-11-09T04:28:36;96237.31;;;4.12;86.09
52935;BME280;38802;50.198;19.796;2022-11-09T04:31:04;96236.48;;;4.11;86.09
52935;BME280;38802;50.198;19.796;2022-11-09T04:33:32;96237.36;;;4.10;86.08
52935;BME280;38802;50.198;19.796;2022-11-09T04:36:03;96235.15;;;4.10;86.27
52935;BME280;38802;50.198;19.796;2022-11-09T04:38:31;96230.52;;;4.10;86.34
52935;BME280;38802;50.198;19.796;2022-11-09T04:41:00;96232.77;;;4.09;86.26
52935;BME280;38802;50.198;19.796;2022-11-09T04:43:28;96231.86;;;4.07;86.26
52935;BME280;38802;50.198;19.796;2022-11-09T04:46:01;96234.70;;;4.05;86.51
52935;BME280;38802;50.198;19.796;2022-11-09T04:48:30;96231.20;;;4.07;86.58
52935;BME280;38802;50.198;19.796;2022-11-09T04:51:03;96232.62;;;4.09;86.52
52935;BME280;38802;50.198;19.796;2022-11-09T04:53:33;96232.87;;;4.11;86.83
52935;BME280;38802;50.198;19.796;2022-11-09T04:56:03;96233.55;;;4.14;86.61
52935;BME280;38802;50.198;19.796;2022-11-09T04:58:32;96235.23;;;4.15;86.87
52935;BME280;38802;50.198;19.796;2022-11-09T05:01:04;96234.49;;;4.19;86.97
52935;BME280;38802;50.198;19.796;2022-11-09T05:03:32;96236.55;;;4.22;86.89
52935;BME280;38802;50.198;19.796;2022-11-09T05:06:02;96234.23;;;4.23;87.08
52935;BME280;38802;50.198;19.796;2022-11-09T05:08:54;96229.92;;;4.26;87.00
52935;BME280;38802;50.198;19.796;2022-11-09T05:11:23;96228.91;;;4.26;86.79
52935;BME280;38802;50.198;19.796;2022-11-09T05:13:51;96229.11;;;4.25;86.98
52935;BME280;38802;50.198;19.796;2022-11-09T05:16:20;96233.09;;;4.25;86.78
52935;BME280;38802;50.198;19.796;2022-11-09T05:18:49;96232.46;;;4.24;86.98
52935;BME280;38802;50.198;19.796;2022-11-09T05:21:17;96239.96;;;4.25;87.02
52935;BME280;38802;50.198;19.796;2022-11-09T05:23:46;96240.59;;;4.23;86.75
52935;BME280;38802;50.198;19.796;2022-11-09T05:26:34;96237.63;;;4.21;86.80
52935;BME280;38802;50.198;19.796;2022-11-09T05:29:05;96240.13;;;4.19;86.82
52935;BME280;38802;50.198;19.796;2022-11-09T05:31:35;96241.94;;;4.18;86.75
52935;BME280;38802;50.198;19.796;2022-11-09T05:34:05;96243.59;;;4.16;86.67
52935;BME280;38802;50.198;19.796;2022-11-09T05:36:33;96240.93;;;4.14;86.78
52935;BME280;38802;50.198;19.796;2022-11-09T05:39:01;96242.33;;;4.14;86.68
52935;BME280;38802;50.198;19.796;2022-11-09T05:41:30;96249.05;;;4.14;86.91
52935;BME280;38802;50.198;19.796;2022-11-09T05:43:58;96248.04;;;4.13;86.88
52935;BME280;38802;50.198;19.796;2022-11-09T05:46:26;96248.26;;;4.13;86.82
52935;BME280;38802;50.198;19.796;2022-11-09T05:48:54;96256.34;;;4.12;86.85
52935;BME280;38802;50.198;19.796;2022-11-09T05:51:22;96251.20;;;4.12;86.69
52935;BME280;38802;50.198;19.796;2022-11-09T05:53:50;96254.63;;;4.12;86.85
52935;BME280;38802;50.198;19.796;2022-11-09T05:56:18;96251.83;;;4.13;87.03
52935;BME280;38802;50.198;19.796;2022-11-09T05:58:47;96251.41;;;4.15;86.88
52935;BME280;38802;50.198;19.796;2022-11-09T06:01:16;96254.13;;;4.15;87.14
52935;BME280;38802;50.198;19.796;2022-11-09T06:03:46;96253.50;;;4.17;87.17
52935;BME280;38802;50.198;19.796;2022-11-09T06:06:15;96248.95;;;4.18;87.21
52935;BME280;38802;50.198;19.796;2022-11-09T06:08:44;96250.05;;;4.20;87.15
52935;BME280;38802;50.198;19.796;2022-11-09T06:11:12;96247.83;;;4.20;87.14
52935;BME280;38802;50.198;19.796;2022-11-09T06:13:50;96247.93;;;4.21;87.14
52935;BME280;38802;50.198;19.796;2022-11-09T06:16:19;96248.52;;;4.23;87.21
52935;BME280;38802;50.198;19.796;2022-11-09T06:18:47;96251.17;;;4.25;87.30
52935;BME280;38802;50.198;19.796;2022-11-09T06:21:15;96251.38;;;4.27;87.32
52935;BME280;38802;50.198;19.796;2022-11-09T06:23:43;96249.67;;;4.30;87.36
52935;BME280;38802;50.198;19.796;2022-11-09T06:26:12;96253.42;;;4.33;87.51
52935;BME280;38802;50.198;19.796;2022-11-09T06:28:40;96253.79;;;4.36;87.36
52935;BME280;38802;50.198;19.796;2022-11-09T06:31:15;96255.31;;;4.39;87.57
52935;BME280;38802;50.198;19.796;2022-11-09T06:33:43;96258.70;;;4.43;87.73
52935;BME280;38802;50.198;19.796;2022-11-09T06:36:12;96257.00;;;4.49;87.71
52935;BME280;38802;50.198;19.796;2022-11-09T06:38:40;96259.93;;;4.55;87.81
52935;BME280;38802;50.198;19.796;2022-11-09T06:41:09;96257.67;;;4.61;87.79
52935;BME280;38802;50.198;19.796;2022-11-09T06:43:37;96253.04;;;4.67;87.97
52935;BME280;38802;50.198;19.796;2022-11-09T06:46:06;96259.17;;;4.73;87.95
52935;BME280;38802;50.198;19.796;2022-11-09T06:48:34;96255.45;;;4.82;88.20
52935;BME280;38802;50.198;19.796;2022-11-09T06:51:03;96255.72;;;4.91;88.25
52935;BME280;38802;50.198;19.796;2022-11-09T06:53:33;96258.02;;;4.99;88.20
52935;BME280;38802;50.198;19.796;2022-11-09T06:56:03;96262.59;;;5.06;88.34
52935;BME280;38802;50.198;19.796;2022-11-09T06:58:31;96262.40;;;5.15;88.26
52935;BME280;38802;50.198;19.796;2022-11-09T07:01:05;96264.56;;;5.22;88.26
52935;BME280;38802;50.198;19.796;2022-11-09T07:03:33;96262.96;;;5.29;88.32
52935;BME280;38802;50.198;19.796;2022-11-09T07:06:06;96262.85;;;5.36;88.41
52935;BME280;38802;50.198;19.796;2022-11-09T07:08:35;96262.39;;;5.44;88.32
52935;BME280;38802;50.198;19.796;2022-11-09T07:11:04;96262.63;;;5.51;88.26
52935;BME280;38802;50.198;19.796;2022-11-09T07:13:32;96253.48;;;5.57;88.22
52935;BME280;38802;50.198;19.796;2022-11-09T07:16:01;96262.73;;;5.63;88.37
52935;BME280;38802;50.198;19.796;2022-11-09T07:18:29;96266.31;;;5.69;88.39
52935;BME280;38802;50.198;19.796;2022-11-09T07:20:58;96263.80;;;5.76;88.38
52935;BME280;38802;50.198;19.796;2022-11-09T07:23:26;96262.38;;;5.83;88.44
52935;BME280;38802;50.198;19.796;2022-11-09T07:25:57;96263.71;;;5.89;88.33
52935;BME280;38802;50.198;19.796;2022-11-09T07:28:25;96257.63;;;5.95;88.41
52935;BME280;38802;50.198;19.796;2022-11-09T07:30:56;96257.99;;;6.03;88.35
52935;BME280;38802;50.198;19.796;2022-11-09T07:33:24;96256.96;;;6.11;88.54
52935;BME280;38802;50.198;19.796;2022-11-09T07:35:53;96258.35;;;6.19;88.50
52935;BME280;38802;50.198;19.796;2022-11-09T07:38:22;96257.62;;;6.28;88.37
52935;BME280;38802;50.198;19.796;2022-11-09T07:40:50;96253.19;;;6.35;88.42
52935;BME280;38802;50.198;19.796;2022-11-09T07:43:18;96248.05;;;6.42;88.50
52935;BME280;38802;50.198;19.796;2022-11-09T07:45:51;96247.16;;;6.50;88.49
52935;BME280;38802;50.198;19.796;2022-11-09T07:48:19;96246.76;;;6.59;88.46
52935;BME280;38802;50.198;19.796;2022-11-09T07:50:48;96245.83;;;6.68;88.54
52935;BME280;38802;50.198;19.796;2022-11-09T07:53:17;96247.08;;;6.75;88.41
52935;BME280;38802;50.198;19.796;2022-11-09T07:55:46;96241.34;;;6.81;88.29
52935;BME280;38802;50.198;19.796;2022-11-09T07:58:22;96242.79;;;6.87;88.21
52935;BME280;38802;50.198;19.796;2022-11-09T08:00:51;96241.39;;;6.93;88.46
52935;BME280;38802;50.198;19.796;2022-11-09T08:03:20;96239.52;;;7.00;88.31
52935;BME280;38802;50.198;19.796;2022-11-09T08:05:51;96242.61;;;7.08;88.44
52935;BME280;38802;50.198;19.796;2022-11-09T08:08:19;96241.42;;;7.15;88.19
52935;BME280;38802;50.198;19.796;2022-11-09T08:10:47;96235.98;;;7.21;88.37
52935;BME280;38802;50.198;19.796;2022-11-09T08:13:19;96237.95;;;7.28;88.39
52935;BME280;38802;50.198;19.796;2022-11-09T08:15:48;96238.02;;;7.35;88.25
52935;BME280;38802;50.198;19.796;2022-11-09T08:18:19;96230.37;;;7.38;88.24
52935;BME280;38802;50.198;19.796;2022-11-09T08:20:48;96233.38;;;7.45;88.12
52935;BME280;38802;50.198;19.796;2022-11-09T08:23:18;96230.49;;;7.48;88.03
52935;BME280;38802;50.198;19.796;2022-11-09T08:25:49;96230.71;;;7.53;88.00
52935;BME280;38802;50.198;19.796;2022-11-09T08:28:17;96230.88;;;7.58;88.08
52935;BME280;38802;50.198;19.796;2022-11-09T08:30:55;96230.52;;;7.63;88.13
52935;BME280;38802;50.198;19.796;2022-11-09T08:33:26;96237.26;;;7.70;87.98
52935;BME280;38802;50.198;19.796;2022-11-09T08:35:55;96240.66;;;7.76;87.84
52935;BME280;38802;50.198;19.796;2022-11-09T08:38:23;96234.77;;;7.81;87.82
52935;BME280;38802;50.198;19.796;2022-11-09T08:40:58;96231.69;;;7.85;87.86
52935;BME280;38802;50.198;19.796;2022-11-09T08:43:26;96224.20;;;7.91;87.88
52935;BME280;38802;50.198;19.796;2022-11-09T08:45:55;96224.30;;;7.97;87.69
52935;BME280;38802;50.198;19.796;2022-11-09T08:48:23;96225.30;;;8.02;87.61
52935;BME280;38802;50.198;19.796;2022-11-09T08:50:56;96219.77;;;8.06;87.61
52935;BME280;38802;50.198;19.796;2022-11-09T08:53:27;96218.10;;;8.11;87.34
52935;BME280;38802;50.198;19.796;2022-11-09T08:55:56;96219.89;;;8.14;87.40
52935;BME280;38802;50.198;19.796;2022-11-09T08:58:24;96219.42;;;8.18;87.43
52935;BME280;38802;50.198;19.796;2022-11-09T09:00:52;96221.49;;;8.23;87.38
52935;BME280;38802;50.198;19.796;2022-11-09T09:03:21;96222.63;;;8.29;87.37
52935;BME280;38802;50.198;19.796;2022-11-09T09:05:49;96222.02;;;8.36;87.51
52935;BME280;38802;50.198;19.796;2022-11-09T09:08:18;96222.02;;;8.42;87.31
52935;BME280;38802;50.198;19.796;2022-11-09T09:10:50;96223.40;;;8.49;87.23
52935;BME280;38802;50.198;19.796;2022-11-09T09:13:18;96223.91;;;8.57;87.26
52935;BME280;38802;50.198;19.796;2022-11-09T09:15:49;96223.35;;;8.64;87.21
52935;BME280;38802;50.198;19.796;2022-11-09T09:18:17;96226.61;;;8.74;87.18
52935;BME280;38802;50.198;19.796;2022-11-09T09:20:46;96223.41;;;8.82;87.07
52935;BME280;38802;50.198;19.796;2022-11-09T09:23:15;96224.59;;;8.89;87.02
52935;BME280;38802;50.198;19.796;2022-11-09T09:25:44;96223.23;;;8.96;86.97
52935;BME280;38802;50.198;19.796;2022-11-09T09:28:12;96218.86;;;9.00;86.83
52935;BME280;38802;50.198;19.796;2022-11-09T09:30:40;96216.50;;;9.06;86.86
52935;BME280;38802;50.198;19.796;2022-11-09T09:33:08;96214.98;;;9.13;86.14
52935;BME280;38802;50.198;19.796;2022-11-09T09:35:36;96214.13;;;9.22;86.47
52935;BME280;38802;50.198;19.796;2022-11-09T09:38:04;96217.12;;;9.30;86.29
52935;BME280;38802;50.198;19.796;2022-11-09T09:40:39;96222.16;;;9.39;86.12
52935;BME280;38802;50.198;19.796;2022-11-09T09:43:22;96222.85;;;9.48;85.60
52935;BME280;38802;50.198;19.796;2022-11-09T09:45:52;96226.35;;;9.57;85.60
52935;BME280;38802;50.198;19.796;2022-11-09T09:48:35;96225.02;;;9.62;85.69
52935;BME280;38802;50.198;19.796;2022-11-09T09:51:28;96224.04;;;9.66;84.72
52935;BME280;38802;50.198;19.796;2022-11-09T09:54:06;96218.27;;;9.71;84.85
52935;BME280;38802;50.198;19.796;2022-11-09T09:56:40;96218.79;;;9.75;85.04
52935;BME280;38802;50.198;19.796;2022-11-09T10:01:52;96219.93;;;9.83;85.15
52935;BME280;38802;50.198;19.796;2022-11-09T10:04:39;96221.52;;;9.84;84.55
52935;BME280;38802;50.198;19.796;2022-11-09T10:07:12;96219.54;;;9.85;84.74
52935;BME280;38802;50.198;19.796;2022-11-09T10:13:12;96218.27;;;9.88;84.45
52935;BME280;38802;50.198;19.796;2022-11-09T10:21:30;96215.91;;;9.88;84.23
52935;BME280;38802;50.198;19.796;2022-11-09T10:26:46;96218.08;;;9.84;84.09
52935;BME280;38802;50.198;19.796;2022-11-09T10:29:44;96214.92;;;9.85;84.15
52935;BME280;38802;50.198;19.796;2022-11-09T10:32:14;96212.77;;;9.86;83.88
52935;BME280;38802;50.198;19.796;2022-11-09T10:37:40;96210.52;;;9.90;84.07
52935;BME280;38802;50.198;19.796;2022-11-09T10:43:08;96210.55;;;9.94;83.37
52935;BME280;38802;50.198;19.796;2022-11-09T10:46:05;96209.36;;;9.93;82.95
52935;BME280;38802;50.198;19.796;2022-11-09T10:48:53;96207.13;;;9.95;83.18
52935;BME280;38802;50.198;19.796;2022-11-09T10:51:43;96207.46;;;10.00;83.32
52935;BME280;38802;50.198;19.796;2022-11-09T10:54:35;96205.73;;;10.04;83.40
52935;BME280;38802;50.198;19.796;2022-11-09T10:57:24;96206.02;;;10.09;83.23
52935;BME280;38802;50.198;19.796;2022-11-09T11:00:17;96202.86;;;10.14;82.97
52935;BME280;38802;50.198;19.796;2022-11-09T11:03:16;96204.23;;;10.18;82.94
52935;BME280;38802;50.198;19.796;2022-11-09T11:06:15;96199.80;;;10.22;82.78
52935;BME280;38802;50.198;19.796;2022-11-09T11:09:22;96201.52;;;10.24;82.38
52935;BME280;38802;50.198;19.796;2022-11-09T11:12:14;96202.63;;;10.25;82.38
52935;BME280;38802;50.198;19.796;2022-11-09T11:15:01;96196.41;;;10.29;82.40
52935;BME280;38802;50.198;19.796;2022-11-09T11:17:49;96199.23;;;10.35;82.13
52935;BME280;38802;50.198;19.796;2022-11-09T11:20:37;96202.35;;;10.39;82.10
52935;BME280;38802;50.198;19.796;2022-11-09T11:23:24;96195.68;;;10.43;81.56
52935;BME280;38802;50.198;19.796;2022-11-09T11:29:22;96191.52;;;10.49;81.07
52935;BME280;38802;50.198;19.796;2022-11-09T11:32:15;96192.21;;;10.49;80.84
52935;BME280;38802;50.198;19.796;2022-11-09T11:35:04;96192.88;;;10.49;80.90
52935;BME280;38802;50.198;19.796;2022-11-09T11:38:28;96192.23;;;10.51;80.66
52935;BME280;38802;50.198;19.796;2022-11-09T11:44:40;96197.29;;;10.54;80.49
52935;BME280;38802;50.198;19.796;2022-11-09T11:51:41;96195.73;;;10.63;80.92
52935;BME280;38802;50.198;19.796;2022-11-09T11:57:48;96196.80;;;10.71;80.34
52935;BME280;38802;50.198;19.796;2022-11-09T12:00:47;96194.58;;;10.73;80.19
52935;BME280;38802;50.198;19.796;2022-11-09T12:03:49;96195.46;;;10.75;80.18
52935;BME280;38802;50.198;19.796;2022-11-09T12:16:54;96187.48;;;10.85;79.24
52935;BME280;38802;50.198;19.796;2022-11-09T12:26:00;96184.66;;;10.95;79.42
52935;BME280;38802;50.198;19.796;2022-11-09T12:41:07;96184.66;;;11.04;78.33
52935;BME280;38802;50.198;19.796;2022-11-09T12:44:03;96186.45;;;11.03;78.39
52935;BME280;38802;50.198;19.796;2022-11-09T12:46:56;96186.27;;;11.03;78.45
52935;BME280;38802;50.198;19.796;2022-11-09T12:49:45;96190.23;;;11.04;78.01
52935;BME280;38802;50.198;19.796;2022-11-09T12:52:33;96192.30;;;11.04;77.83
52935;BME280;38802;50.198;19.796;2022-11-09T12:55:39;96191.56;;;11.04;77.58
52935;BME280;38802;50.198;19.796;2022-11-09T12:58:30;96191.88;;;11.07;77.21
52935;BME280;38802;50.198;19.796;2022-11-09T13:04:21;96191.60;;;11.08;76.73
52935;BME280;38802;50.198;19.796;2022-11-09T13:07:18;96194.95;;;11.09;76.48
52935;BME280;38802;50.198;19.796;2022-11-09T13:10:25;96195.95;;;11.10;76.83
52935;BME280;38802;50.198;19.796;2022-11-09T13:16:31;96200.30;;;11.14;76.62
52935;BME280;38802;50.198;19.796;2022-11-09T13:31:16;96204.77;;;11.08;76.95
52935;BME280;38802;50.198;19.796;2022-11-09T13:34:51;96199.89;;;11.07;77.08
52935;BME280;38802;50.198;19.796;2022-11-09T13:43:22;96194.55;;;11.10;77.43
52935;BME280;38802;50.198;19.796;2022-11-09T13:49:00;96188.92;;;11.11;76.94
52935;BME280;38802;50.198;19.796;2022-11-09T13:51:47;96189.73;;;11.09;77.12
52935;BME280;38802;50.198;19.796;2022-11-09T13:54:35;96191.00;;;11.07;77.38
52935;BME280;38802;50.198;19.796;2022-11-09T13:57:24;96189.98;;;11.05;77.06
52935;BME280;38802;50.198;19.796;2022-11-09T14:00:22;96190.97;;;11.01;76.94
52935;BME280;38802;50.198;19.796;2022-11-09T14:03:22;96191.14;;;10.97;77.13
52935;BME280;38802;50.198;19.796;2022-11-09T14:06:10;96187.85;;;10.92;77.38
52935;BME280;38802;50.198;19.796;2022-11-09T14:08:59;96189.75;;;10.87;77.25
52935;BME280;38802;50.198;19.796;2022-11-09T14:12:06;96188.16;;;10.83;77.28
52935;BME280;38802;50.198;19.796;2022-11-09T14:15:33;96188.48;;;10.77;77.37
52935;BME280;38802;50.198;19.796;2022-11-09T14:18:47;96191.56;;;10.69;77.23
52935;BME280;38802;50.198;19.796;2022-11-09T14:21:44;96195.23;;;10.63;77.27
52935;BME280;38802;50.198;19.796;2022-11-09T14:24:36;96196.76;;;10.57;77.15
52935;BME280;38802;50.198;19.796;2022-11-09T14:27:24;96201.77;;;10.51;77.32
52935;BME280;38802;50.198;19.796;2022-11-09T14:30:20;96204.31;;;10.45;77.49
52935;BME280;38802;50.198;19.796;2022-11-09T14:33:25;96201.69;;;10.39;77.16
52935;BME280;38802;50.198;19.796;2022-11-09T14:36:12;96203.39;;;10.33;77.20
52935;BME280;38802;50.198;19.796;2022-11-09T14:39:03;96198.69;;;10.27;77.38
52935;BME280;38802;50.198;19.796;2022-11-09T14:41:54;96195.11;;;10.22;77.49
52935;BME280;38802;50.198;19.796;2022-11-09T14:44:44;96191.06;;;10.16;77.46
52935;BME280;38802;50.198;19.796;2022-11-09T14:47:33;96190.21;;;10.09;77.42
52935;BME280;38802;50.198;19.796;2022-11-09T14:56:17;96196.74;;;9.86;77.60
52935;BME280;38802;50.198;19.796;2022-11-09T14:59:06;96200.80;;;9.79;77.62
52935;BME280;38802;50.198;19.796;2022-11-09T15:05:04;96201.20;;;9.67;77.37
52935;BME280;38802;50.198;19.796;2022-11-09T15:07:51;96194.66;;;9.60;77.62
52935;BME280;38802;50.198;19.796;2022-11-09T15:10:38;96196.39;;;9.54;77.47
52935;BME280;38802;50.198;19.796;2022-11-09T15:16:23;96199.19;;;9.40;77.68
52935;BME280;38802;50.198;19.796;2022-11-09T15:19:22;96199.55;;;9.33;77.78
52935;BME280;38802;50.198;19.796;2022-11-09T15:22:55;96199.70;;;9.27;77.78
52935;BME280;38802;50.198;19.796;2022-11-09T15:28:28;96199.34;;;9.14;77.76
52935;BME280;38802;50.198;19.796;2022-11-09T15:31:17;96197.23;;;9.07;78.01
52935;BME280;38802;50.198;19.796;2022-11-09T15:34:23;96199.98;;;9.00;77.81